Time;durP1;ratioP1;P1;durP2;ratioP2;P2;SDS_P1;SDS_P2;PMS_P1;PMS_P2;Temp;Humidity;BMP_temperature;BMP_pressure;BME280_temperature;BME280_humidity;BME280_pressure;Samples;Min_cycle;Max_cycle;Signal;HPM_P1;HPM_P2
2022/06/05 11:09:00;;;;;;;2.85;2.00;;;22.70;99.90;;;;;;5623516;23;20237;-81
2022/06/05 11:14:23;;;;;;;7.28;2.25;;;22.70;99.90;;;;;;4959992;29;20211;-82
2022/06/05 11:16:56;;;;;;;9.38;2.20;;;22.70;99.90;;;;;;4958278;28;20208;-82
2022/06/05 11:19:34;;;;;;;10.13;2.22;;;22.80;99.90;;;;;;4958309;28;20314;-78
2022/06/05 11:22:04;;;;;;;9.95;2.15;;;22.80;99.90;;;;;;4957823;28;20283;-78
2022/06/05 11:24:35;;;;;;;8.70;2.30;;;22.80;99.90;;;;;;4957215;28;20742;-77
2022/06/05 11:27:10;;;;;;;2.47;2.10;;;22.80;99.90;;;;;;4957412;28;20275;-76
2022/06/05 11:29:49;;;;;;;9.02;2.15;;;22.80;99.90;;;;;;4957841;28;20227;-78
2022/06/05 11:32:40;;;;;;;9.13;2.90;;;22.80;99.90;;;;;;4957632;28;20194;-80
2022/06/05 11:35:12;;;;;;;;;;;22.90;99.90;;;;;;4960424;28;20051;-84
2022/06/05 11:37:45;;;;;;;;;;;22.70;99.90;;;;;;4958944;28;20021;-79
2022/06/05 11:40:20;;;;;;;;;;;22.70;99.90;;;;;;4958664;28;19977;-79
2022/06/05 11:42:50;;;;;;;;;;;22.70;99.90;;;;;;4958611;28;19946;-80
2022/06/05 11:45:35;;;;;;;;;;;22.70;99.90;;;;;;4958929;28;19922;-79
2022/06/05 11:48:04;;;;;;;;;;;22.60;99.90;;;;;;4958386;28;19922;-79
2022/06/05 11:50:37;;;;;;;;;;;22.60;99.90;;;;;;4958190;28;20029;-79
2022/06/05 11:53:08;;;;;;;;;;;22.60;99.90;;;;;;4958430;28;20005;-80
2022/06/05 11:55:39;;;;;;;;;;;22.60;99.90;;;;;;4958122;28;20366;-80
2022/06/05 11:58:09;;;;;;;;;;;22.60;99.90;;;;;;4958417;28;19986;-79
2022/06/05 12:00:36;;;;;;;;;;;22.60;99.90;;;;;;4958864;28;19922;-79
2022/06/05 12:03:10;;;;;;;;;;;22.60;99.90;;;;;;4959134;28;20338;-78
2022/06/05 12:05:40;;;;;;;;;;;22.60;99.90;;;;;;4959234;28;20285;-78
2022/06/05 12:08:09;;;;;;;;;;;22.60;99.90;;;;;;4959568;28;20008;-79
2022/06/05 12:10:40;;;;;;;;;;;22.60;99.90;;;;;;4959294;28;19922;-79
2022/06/05 12:13:27;;;;;;;;;;;22.50;99.90;;;;;;4959257;28;20013;-79
2022/06/05 12:15:57;;;;;;;;;;;22.60;99.90;;;;;;4958780;28;19960;-79
2022/06/05 12:18:27;;;;;;;;;;;22.60;99.90;;;;;;4959094;28;20009;-79
2022/06/05 12:20:57;;;;;;;;;;;22.60;99.90;;;;;;4959115;28;19923;-79
2022/06/05 12:23:28;;;;;;;;;;;22.60;99.90;;;;;;4959467;28;20009;-78
2022/06/05 12:25:58;;;;;;;;;;;22.60;99.90;;;;;;4958944;28;19973;-78
2022/06/05 12:28:27;;;;;;;;;;;22.60;99.90;;;;;;4959855;28;19922;-78
2022/06/05 12:30:56;;;;;;;;;;;22.60;99.90;;;;;;4958213;28;20012;-78
2022/06/05 12:33:26;;;;;;;;;;;22.60;99.90;;;;;;4957500;28;19926;-78
2022/06/05 12:35:57;;;;;;;;;;;22.60;99.90;;;;;;4962156;28;19926;-78
2022/06/05 12:38:31;;;;;;;;;;;22.60;99.90;;;;;;4961613;28;20018;-77
2022/06/05 12:41:04;;;;;;;;;;;22.60;99.90;;;;;;4963672;28;19946;-78
2022/06/05 12:43:33;;;;;;;;;;;22.60;99.90;;;;;;4963133;28;19969;-80
2022/06/05 12:46:07;;;;;;;;;;;22.60;99.90;;;;;;4962353;28;19927;-78
2022/06/05 12:48:36;;;;;;;;;;;22.60;99.90;;;;;;4962209;28;19922;-79
2022/06/05 12:51:07;;;;;;;;;;;22.60;99.90;;;;;;4961596;28;19948;-78
2022/06/05 12:53:36;;;;;;;;;;;22.60;99.90;;;;;;4962618;28;19930;-78
2022/06/05 12:56:14;;;;;;;;;;;22.50;99.90;;;;;;4962876;28;19965;-80
2022/06/05 12:58:48;;;;;;;;;;;22.50;99.90;;;;;;4961852;28;19930;-79
2022/06/05 13:01:19;;;;;;;;;;;22.60;99.90;;;;;;4958538;28;19977;-78
2022/06/05 13:03:52;;;;;;;10.15;2.17;;;22.60;99.90;;;;;;4958553;28;20413;-78
2022/06/05 13:06:37;;;;;;;18.15;2.30;;;23.00;99.90;;;;;;4958092;28;20239;-78
2022/06/05 13:09:14;;;;;;;14.35;2.30;;;22.90;99.90;;;;;;4959617;28;20241;-78
2022/06/05 13:11:47;;;;;;;13.32;1.67;;;22.90;99.90;;;;;;4959888;28;20643;-77
2022/06/05 13:14:25;;;;;;;5.20;1.77;;;22.90;99.90;;;;;;4960962;28;20198;-78
2022/06/05 13:17:09;;;;;;;4.05;1.95;;;22.90;99.90;;;;;;4960882;28;20219;-78
2022/06/05 13:19:42;;;;;;;4.15;1.85;;;22.90;99.90;;;;;;4960905;28;20322;-78
2022/06/05 13:22:15;;;;;;;4.25;1.90;;;22.90;99.90;;;;;;4961487;28;20271;-78
2022/06/05 13:24:53;;;;;;;4.60;1.88;;;23.00;99.90;;;;;;4961447;28;20251;-78
2022/06/05 13:27:32;;;;;;;6.53;1.83;;;23.00;99.90;;;;;;4962140;28;20183;-78
2022/06/05 13:30:06;;;;;;;4.63;2.05;;;23.00;99.90;;;;;;4960756;28;20231;-78
2022/06/05 13:32:48;;;;;;;4.82;1.65;;;23.00;99.90;;;;;;4961126;28;20615;-78
2022/06/05 13:35:29;;;;;;;4.82;1.65;;;23.10;99.90;;;;;;4957200;28;20275;-80
2022/06/05 13:38:05;;;;;;;6.75;1.70;;;23.00;99.90;;;;;;4978963;23;20566;-75
2022/06/05 13:40:40;;;;;;;2.08;1.80;;;23.00;99.90;;;;;;4955030;28;20222;-75
2022/06/05 13:43:16;;;;;;;6.43;2.45;;;23.10;99.90;;;;;;4955111;28;20202;-75
2022/06/05 13:45:55;;;;;;;4.03;1.63;;;23.10;99.90;;;;;;4955748;28;20191;-75
2022/06/05 13:48:28;;;;;;;3.35;1.60;;;23.10;99.90;;;;;;4939994;29;20184;-76
2022/06/05 13:51:02;;;;;;;2.03;1.75;;;23.10;99.90;;;;;;4939936;29;20246;-76
2022/06/05 13:53:38;;;;;;;5.47;1.90;;;23.10;99.90;;;;;;4939869;29;20290;-76
2022/06/05 13:56:22;;;;;;;2.92;1.60;;;23.10;99.90;;;;;;4939498;29;20224;-75
2022/06/05 13:58:57;;;;;;;1.80;1.48;;;23.10;99.90;;;;;;4939428;29;20208;-77
2022/06/05 14:01:31;;;;;;;3.80;1.70;;;23.10;99.90;;;;;;4939444;29;20678;-76
2022/06/05 14:04:15;;;;;;;1.88;1.73;;;23.10;99.90;;;;;;4939367;29;20196;-76
2022/06/05 14:06:54;;;;;;;2.47;1.95;;;23.20;99.90;;;;;;4939276;29;20228;-76
2022/06/05 14:09:48;;;;;;;3.08;1.42;;;23.10;99.90;;;;;;4939321;29;20189;-76
2022/06/05 14:12:22;;;;;;;6.20;2.30;;;23.20;99.90;;;;;;4930351;29;20292;-76
2022/06/05 14:14:50;;;;;;;4.97;1.50;;;23.10;99.90;;;;;;4939509;29;20271;-77
2022/06/05 14:17:25;;;;;;;7.32;1.85;;;23.10;99.90;;;;;;4938986;29;20227;-76
2022/06/05 14:19:56;;;;;;;4.90;1.80;;;23.10;99.90;;;;;;4939359;29;20194;-76
2022/06/05 14:22:25;;;;;;;7.18;2.03;;;23.10;99.90;;;;;;4939095;29;20240;-75
2022/06/05 14:24:55;;;;;;;3.63;1.80;;;23.20;99.90;;;;;;4939355;29;20215;-75
2022/06/05 14:27:28;;;;;;;10.80;2.35;;;23.20;99.90;;;;;;4938919;29;20658;-76
2022/06/05 14:29:58;;;;;;;14.90;2.00;;;23.20;99.90;;;;;;4939125;29;20227;-76
2022/06/05 14:32:29;;;;;;;23.63;3.10;;;23.20;99.90;;;;;;4938822;29;20188;-78
2022/06/05 14:35:21;;;;;;;6.90;2.13;;;23.20;99.90;;;;;;4939136;29;20189;-75
2022/06/05 14:38:00;;;;;;;16.73;2.42;;;23.30;99.90;;;;;;4929906;29;20607;-77
2022/06/05 14:40:33;;;;;;;12.55;2.05;;;23.30;99.90;;;;;;4939095;29;20195;-76
2022/06/05 14:43:07;;;;;;;14.32;2.40;;;23.30;99.90;;;;;;4939335;29;20199;-74
2022/06/05 14:45:45;;;;;;;11.45;2.13;;;23.30;99.90;;;;;;4938976;29;20216;-74
2022/06/05 14:48:17;;;;;;;9.77;2.10;;;23.30;99.90;;;;;;4938860;29;20216;-74
2022/06/05 14:50:49;;;;;;;12.18;2.30;;;23.30;99.90;;;;;;4938773;29;20275;-74
2022/06/05 14:53:28;;;;;;;15.48;2.28;;;23.30;99.90;;;;;;4938811;29;20227;-74
2022/06/05 14:58:53;;;;;;;10.18;1.85;;;23.30;99.90;;;;;;4937488;29;20216;-73
2022/06/05 15:01:30;;;;;;;16.33;2.72;;;23.30;99.90;;;;;;4938562;29;20210;-74
2022/06/05 15:04:05;;;;;;;22.27;3.03;;;23.40;99.90;;;;;;4938663;29;20194;-74
2022/06/05 15:06:36;;;;;;;29.23;3.05;;;23.30;99.90;;;;;;4938459;29;20281;-74
2022/06/05 15:09:07;;;;;;;15.95;3.08;;;23.40;99.90;;;;;;4938206;29;20636;-74
2022/06/05 15:11:41;;;;;;;38.70;3.10;;;23.40;99.90;;;;;;4938136;29;20694;-73
2022/06/05 15:14:15;;;;;;;22.45;3.67;;;23.40;99.90;;;;;;4938442;29;20192;-73
2022/06/05 15:16:47;;;;;;;29.58;4.05;;;23.50;99.90;;;;;;4938329;29;20311;-74
2022/06/05 15:19:19;;;;;;;14.48;3.03;;;23.40;99.90;;;;;;4938038;29;20308;-73
2022/06/05 15:21:54;;;;;;;15.65;3.75;;;23.50;99.90;;;;;;4938445;29;20184;-73
2022/06/05 15:24:26;;;;;;;17.90;2.75;;;23.50;99.90;;;;;;4938257;29;20203;-74
2022/06/05 15:27:04;;;;;;;31.20;3.88;;;23.50;99.90;;;;;;4937865;29;20729;-74
2022/06/05 15:29:38;;;;;;;11.63;2.28;;;23.50;99.90;;;;;;4938111;29;20247;-74
2022/06/05 15:32:16;;;;;;;14.45;2.70;;;23.50;99.90;;;;;;4938127;29;20188;-74
2022/06/05 15:34:53;;;;;;;13.68;2.72;;;23.50;99.90;;;;;;4937962;29;20284;-74
2022/06/05 15:37:39;;;;;;;20.52;2.90;;;23.50;99.90;;;;;;4937601;29;20239;-74
2022/06/05 15:40:14;;;;;;;24.42;2.80;;;23.50;99.90;;;;;;4937948;29;20636;-73
2022/06/05 15:42:46;;;;;;;32.20;3.03;;;23.50;99.90;;;;;;4937952;29;20275;-75
2022/06/05 15:45:26;;;;;;;26.52;2.80;;;23.50;99.90;;;;;;4937691;29;20188;-77
2022/06/05 15:48:10;;;;;;;16.42;3.00;;;23.50;99.90;;;;;;4938072;29;20247;-76
2022/06/05 15:50:46;;;;;;;20.45;2.85;;;23.50;99.90;;;;;;4937752;29;20556;-76
2022/06/05 15:53:35;;;;;;;22.38;2.50;;;23.40;99.90;;;;;;4937568;29;20205;-76
2022/06/05 15:56:17;;;;;;;19.58;2.95;;;23.50;99.90;;;;;;4937616;29;20191;-76
2022/06/05 15:58:53;;;;;;;20.08;3.17;;;23.40;99.90;;;;;;4937517;29;20218;-76
2022/06/05 16:01:26;;;;;;;10.93;2.75;;;23.40;99.90;;;;;;4937560;29;20188;-76
2022/06/05 16:03:59;;;;;;;10.80;2.75;;;23.40;99.90;;;;;;4937517;29;20195;-77
2022/06/05 16:06:30;;;;;;;11.77;2.42;;;23.40;99.90;;;;;;4937503;29;20224;-78
2022/06/05 16:09:06;;;;;;;12.98;2.38;;;23.40;99.90;;;;;;4937382;29;20180;-77
2022/06/05 16:11:41;;;;;;;18.75;2.55;;;23.40;99.90;;;;;;4937406;29;20184;-77
2022/06/05 16:14:38;;;;;;;10.23;2.65;;;23.40;99.90;;;;;;4937072;29;20198;-77
2022/06/05 16:17:32;;;;;;;10.15;2.28;;;23.40;99.90;;;;;;4935947;29;20224;-78
2022/06/05 16:20:11;;;;;;;21.42;3.03;;;23.40;99.90;;;;;;4937276;29;20276;-77
2022/06/05 16:22:45;;;;;;;13.63;2.83;;;23.30;99.90;;;;;;4937147;29;20212;-77
2022/06/05 16:25:23;;;;;;;20.40;2.47;;;23.40;99.90;;;;;;4937130;29;20193;-78
2022/06/05 16:27:53;;;;;;;17.20;2.55;;;23.30;99.90;;;;;;4936699;29;20220;-78
2022/06/05 16:30:33;;;;;;;13.75;2.35;;;23.30;99.90;;;;;;4936972;29;20304;-78
2022/06/05 16:33:00;;;;;;;17.27;2.10;;;23.30;99.90;;;;;;4936983;29;20282;-78
2022/06/05 16:38:49;;;;;;;10.85;2.22;;;23.30;99.90;;;;;;4936589;29;20216;-78
2022/06/05 16:41:17;;;;;;;13.65;2.72;;;23.30;99.90;;;;;;4936828;29;20271;-78
2022/06/05 16:43:56;;;;;;;22.60;2.60;;;23.30;99.90;;;;;;4936803;29;20291;-77
2022/06/05 16:46:35;;;;;;;16.77;2.20;;;23.30;99.90;;;;;;4936448;29;20738;-77
2022/06/05 16:49:08;;;;;;;12.10;2.42;;;23.30;99.90;;;;;;4936732;29;20188;-76
2022/06/05 16:51:42;;;;;;;17.50;3.22;;;23.30;99.90;;;;;;4936504;29;20196;-77
2022/06/05 16:54:33;;;;;;;18.92;3.55;;;23.30;99.90;;;;;;4936718;29;20188;-77
2022/06/05 16:57:19;;;;;;;30.02;3.35;;;23.30;99.90;;;;;;4931949;29;20232;-77
2022/06/05 17:00:19;;;;;;;28.65;2.58;;;23.30;99.90;;;;;;4936507;29;20215;-77
2022/06/05 17:02:49;;;;;;;21.15;2.70;;;23.30;99.90;;;;;;4936310;29;20641;-75
2022/06/05 17:05:27;;;;;;;14.98;2.72;;;23.20;99.90;;;;;;4936188;29;20629;-76
2022/06/05 17:08:02;;;;;;;24.60;2.60;;;23.20;99.90;;;;;;4936046;29;20228;-76
2022/06/05 17:10:52;;;;;;;17.58;2.80;;;23.20;99.90;;;;;;4936155;29;20192;-75
2022/06/05 17:13:41;;;;;;;17.83;2.25;;;23.30;99.90;;;;;;4936476;29;20279;-75
2022/06/05 17:16:25;;;;;;;16.85;2.67;;;23.30;99.90;;;;;;4936056;29;20230;-76
2022/06/05 17:18:56;;;;;;;19.45;2.78;;;23.20;99.90;;;;;;4936037;29;20212;-76
2022/06/05 17:21:30;;;;;;;11.90;1.98;;;23.20;99.90;;;;;;4935688;29;20616;-76
2022/06/05 17:24:28;;;;;;;16.83;1.95;;;23.20;99.90;;;;;;4936382;29;20195;-76
2022/06/05 17:27:11;;;;;;;12.63;1.92;;;23.30;99.90;;;;;;4936214;29;20263;-76
2022/06/05 17:29:53;;;;;;;16.33;2.15;;;23.20;99.90;;;;;;4936366;29;20271;-76
2022/06/05 17:32:32;;;;;;;18.45;1.90;;;23.20;99.90;;;;;;4936009;29;20199;-76
2022/06/05 17:35:06;;;;;;;17.77;2.45;;;23.20;99.90;;;;;;4935975;29;20636;-76
2022/06/05 17:37:48;;;;;;;26.20;3.35;;;23.20;99.90;;;;;;4935784;29;20268;-75
2022/06/05 17:40:39;;;;;;;19.25;2.05;;;23.20;99.90;;;;;;4936182;29;20224;-76
2022/06/05 17:43:13;;;;;;;20.15;2.47;;;23.20;99.90;;;;;;4936262;29;20199;-76
2022/06/05 17:45:52;;;;;;;12.30;1.77;;;23.10;99.90;;;;;;4936228;29;20202;-76
2022/06/05 17:48:44;;;;;;;13.98;1.80;;;23.20;99.90;;;;;;4936218;29;20187;-76
2022/06/05 17:51:30;;;;;;;16.30;1.92;;;23.20;99.90;;;;;;4931197;29;20731;-76
2022/06/05 17:53:58;;;;;;;17.08;1.85;;;23.20;99.90;;;;;;4935857;29;20252;-76
2022/06/05 17:56:31;;;;;;;5.85;1.38;;;23.10;99.90;;;;;;4936076;29;20310;-77
2022/06/05 17:58:58;;;;;;;12.77;1.75;;;23.10;99.90;;;;;;4936030;29;20568;-76
2022/06/05 18:01:27;;;;;;;21.92;2.20;;;23.10;99.90;;;;;;4935990;29;20211;-76
2022/06/05 18:03:55;;;;;;;17.38;2.03;;;23.10;99.90;;;;;;4936293;29;20204;-77
2022/06/05 18:06:29;;;;;;;14.05;1.85;;;23.20;99.90;;;;;;4935600;29;20275;-77
2022/06/05 18:09:12;;;;;;;20.02;1.52;;;23.10;99.90;;;;;;4936099;29;20184;-77
2022/06/05 18:11:45;;;;;;;9.77;1.63;;;23.20;99.90;;;;;;4935669;29;20197;-77
2022/06/05 18:14:22;;;;;;;17.67;1.90;;;23.10;99.90;;;;;;4935721;29;20287;-76
2022/06/05 18:16:49;;;;;;;23.85;2.80;;;23.20;99.90;;;;;;4935972;29;20275;-76
2022/06/05 18:19:21;;;;;;;14.05;2.55;;;23.20;99.90;;;;;;4935514;29;20223;-76
2022/06/05 18:21:53;;;;;;;12.43;1.80;;;23.20;99.90;;;;;;4935864;29;20199;-75
2022/06/05 18:24:28;;;;;;;26.02;2.22;;;23.10;99.90;;;;;;4935806;29;20259;-75
2022/06/05 18:27:09;;;;;;;14.38;2.13;;;23.10;99.90;;;;;;4935456;29;20227;-76
2022/06/05 18:29:41;;;;;;;23.88;2.17;;;23.20;99.90;;;;;;4935870;29;20192;-74
2022/06/05 18:32:14;;;;;;;23.77;1.73;;;23.20;99.90;;;;;;4936944;29;20195;-74
2022/06/05 18:34:46;;;;;;;13.80;1.90;;;23.20;99.90;;;;;;4939149;29;20188;-74
2022/06/05 18:40:09;;;;;;;22.33;2.13;;;23.20;99.90;;;;;;4938856;29;20208;-74
2022/06/05 18:42:37;;;;;;;10.77;2.25;;;23.20;99.90;;;;;;4939042;29;20194;-74
2022/06/05 18:45:13;;;;;;;11.57;1.50;;;23.10;99.90;;;;;;4938960;29;20215;-74
2022/06/05 18:47:45;;;;;;;15.05;1.65;;;23.10;99.90;;;;;;4938551;29;20231;-75
2022/06/05 18:50:21;;;;;;;15.13;1.90;;;23.10;99.90;;;;;;4938866;29;20181;-74
2022/06/05 18:52:52;;;;;;;6.88;1.13;;;23.10;99.90;;;;;;4938789;29;20188;-74
2022/06/05 18:55:22;;;;;;;12.32;1.67;;;23.10;99.90;;;;;;4938773;29;20193;-74
2022/06/05 18:57:50;;;;;;;16.10;1.48;;;23.10;99.90;;;;;;4938547;29;20227;-74
2022/06/05 19:00:22;;;;;;;12.18;1.77;;;23.10;99.90;;;;;;4938165;29;20220;-74
2022/06/05 19:02:52;;;;;;;10.15;1.65;;;23.10;99.90;;;;;;4938428;29;20196;-74
2022/06/05 19:05:35;;;;;;;10.73;1.95;;;23.10;99.90;;;;;;4938668;29;20189;-74
2022/06/05 19:08:04;;;;;;;8.63;1.40;;;23.10;99.90;;;;;;4938542;29;20224;-75
2022/06/05 19:10:35;;;;;;;16.88;1.50;;;23.10;99.90;;;;;;4938511;29;20207;-75
2022/06/05 19:13:09;;;;;;;6.15;1.35;;;23.10;99.90;;;;;;4938549;29;20193;-75
2022/06/05 19:15:42;;;;;;;7.57;1.42;;;23.10;99.90;;;;;;4938686;29;20192;-75
2022/06/05 19:18:16;;;;;;;8.07;1.48;;;23.10;99.90;;;;;;4938337;29;20255;-76
2022/06/05 19:20:47;;;;;;;5.38;0.95;;;23.10;99.90;;;;;;4938043;29;20580;-76
2022/06/05 19:23:31;;;;;;;5.57;1.50;;;23.10;99.90;;;;;;4938443;29;20275;-76
2022/06/05 19:26:02;;;;;;;5.20;1.10;;;23.10;99.90;;;;;;4938290;29;20260;-76
2022/06/05 19:28:35;;;;;;;6.68;1.13;;;23.00;99.90;;;;;;4938319;29;20271;-75
2022/06/05 19:31:03;;;;;;;4.35;0.90;;;23.10;99.90;;;;;;4938593;29;20283;-75
2022/06/05 19:33:34;;;;;;;4.75;1.00;;;23.00;99.90;;;;;;4938244;29;20206;-76
2022/06/05 19:38:58;;;;;;;3.00;0.90;;;23.10;99.90;;;;;;4941921;29;20223;-78
2022/06/05 19:41:26;;;;;;;2.75;1.10;;;23.10;99.90;;;;;;4940275;29;20272;-78
2022/06/05 19:44:07;;;;;;;0.80;0.70;;;23.10;99.90;;;;;;4941419;29;20291;-78
2022/06/05 19:46:36;;;;;;;1.80;0.77;;;23.10;99.90;;;;;;4941519;29;20311;-78
2022/06/05 19:49:15;;;;;;;1.83;0.93;;;23.00;99.90;;;;;;4940747;29;20200;-79
2022/06/05 19:51:42;;;;;;;3.65;1.27;;;23.10;99.90;;;;;;4942844;29;20271;-79
2022/06/05 19:54:24;;;;;;;5.30;1.20;;;23.10;99.90;;;;;;4942645;29;20227;-81
2022/06/05 19:56:53;;;;;;;0.80;0.80;;;23.10;99.90;;;;;;4939298;29;20235;-82
2022/06/05 19:59:30;;;;;;;10.57;1.27;;;23.00;99.90;;;;;;4940009;29;20226;-82
2022/06/05 20:01:57;;;;;;;7.53;0.95;;;23.10;99.90;;;;;;4941477;29;20188;-82
2022/06/05 20:04:33;;;;;;;2.42;0.77;;;23.00;99.90;;;;;;4942571;29;20223;-82
2022/06/05 20:07:20;;;;;;;2.25;0.77;;;23.00;99.90;;;;;;4939032;29;20226;-82
2022/06/05 20:09:52;;;;;;;4.45;1.38;;;23.00;99.90;;;;;;4939187;29;20191;-82
2022/06/05 20:12:21;;;;;;;2.10;0.90;;;23.10;99.90;;;;;;4947337;29;20188;-79
2022/06/05 20:15:00;;;;;;;4.38;0.95;;;23.10;99.90;;;;;;4945833;29;20211;-82
2022/06/05 20:17:29;;;;;;;3.22;0.90;;;23.10;99.90;;;;;;4942926;29;20227;-82
2022/06/05 20:20:03;;;;;;;1.63;1.00;;;23.00;99.90;;;;;;4945846;28;20235;-81
2022/06/05 20:22:38;;;;;;;2.75;0.88;;;23.00;99.90;;;;;;4944763;29;20276;-81
2022/06/05 20:25:19;;;;;;;6.88;0.95;;;23.10;99.90;;;;;;4945290;29;20195;-81
2022/06/05 20:27:53;;;;;;;3.65;0.80;;;23.00;99.90;;;;;;4941159;29;20259;-80
2022/06/05 20:30:26;;;;;;;5.72;1.48;;;23.00;99.90;;;;;;4942210;29;20209;-80
2022/06/05 20:32:55;;;;;;;1.30;0.68;;;23.00;99.90;;;;;;4943070;29;20199;-81
2022/06/05 20:35:24;;;;;;;2.50;1.02;;;23.00;99.90;;;;;;4941570;29;20229;-82
2022/06/05 20:38:00;;;;;;;6.18;0.90;;;23.00;99.90;;;;;;4941832;29;20349;-81
2022/06/05 20:40:35;;;;;;;2.15;0.80;;;23.10;99.90;;;;;;4942205;29;20228;-80
2022/06/05 20:43:08;;;;;;;1.95;0.80;;;23.00;99.90;;;;;;4945257;29;20263;-81
2022/06/05 20:45:40;;;;;;;5.68;0.82;;;23.00;99.90;;;;;;4945330;29;20647;-81
2022/06/05 20:48:16;;;;;;;4.35;0.80;;;23.00;99.90;;;;;;4943467;29;20311;-79
2022/06/05 20:50:49;;;;;;;3.78;1.05;;;23.00;99.90;;;;;;4943750;29;20227;-81
2022/06/05 20:53:20;;;;;;;2.50;0.80;;;23.00;99.90;;;;;;4943615;29;20271;-81
2022/06/05 20:55:56;;;;;;;1.08;1.00;;;23.00;99.90;;;;;;4943184;29;20216;-80
2022/06/05 20:58:27;;;;;;;4.65;0.90;;;23.00;99.90;;;;;;4945437;29;20192;-82
2022/06/05 21:01:03;;;;;;;3.35;0.88;;;23.00;99.90;;;;;;4942538;29;20236;-81
2022/06/05 21:09:03;;;;;;;1.70;0.75;;;23.00;99.90;;;;;;4941988;29;20286;-80
2022/06/05 21:17:06;;;;;;;1.65;0.60;;;23.00;99.90;;;;;;4943501;29;20267;-81
2022/06/05 21:19:38;;;;;;;1.65;0.75;;;23.00;99.90;;;;;;4942659;29;20263;-82
2022/06/05 21:22:07;;;;;;;0.70;0.70;;;23.00;99.90;;;;;;4943122;29;20199;-81
2022/06/05 21:24:37;;;;;;;0.82;0.75;;;23.00;99.90;;;;;;4945081;28;20216;-81
2022/06/05 21:27:07;;;;;;;1.40;0.80;;;23.00;99.90;;;;;;4943575;29;20273;-80
2022/06/05 21:29:39;;;;;;;7.13;1.05;;;23.00;99.90;;;;;;4943765;29;20263;-80
2022/06/05 21:32:40;;;;;;;6.93;2.03;;;23.00;99.90;;;;;;4942388;29;20195;-82
2022/06/05 21:35:15;;;;;;;1.05;1.05;;;23.00;99.90;;;;;;4940984;28;20215;-80
2022/06/05 21:37:45;;;;;;;4.10;1.23;;;23.00;99.90;;;;;;4941039;29;20236;-81
2022/06/05 21:40:14;;;;;;;6.38;1.17;;;23.00;99.90;;;;;;4940407;29;20283;-79
2022/06/05 21:42:46;;;;;;;5.00;1.00;;;23.00;99.90;;;;;;4941090;29;20268;-79
2022/06/05 21:45:16;;;;;;;4.82;1.25;;;23.00;99.90;;;;;;4940345;29;20273;-79
2022/06/05 21:47:49;;;;;;;4.22;1.02;;;23.00;99.90;;;;;;4943502;29;20315;-79
2022/06/05 21:50:29;;;;;;;3.38;0.82;;;23.00;99.90;;;;;;4941601;29;20717;-79
2022/06/05 21:52:58;;;;;;;3.35;0.85;;;23.00;99.90;;;;;;4940724;29;20208;-79
2022/06/05 21:55:28;;;;;;;5.50;1.25;;;23.00;99.90;;;;;;4940636;29;20204;-81
2022/06/05 21:58:01;;;;;;;4.20;1.20;;;23.00;99.90;;;;;;4941080;29;20311;-79
2022/06/05 22:00:35;;;;;;;2.53;1.05;;;23.00;99.90;;;;;;4942302;29;20208;-80
2022/06/05 22:03:11;;;;;;;2.22;0.90;;;23.00;99.90;;;;;;4942435;29;20220;-81
2022/06/05 22:05:40;;;;;;;1.38;1.00;;;23.00;99.90;;;;;;4941183;29;20294;-80
2022/06/05 22:08:14;;;;;;;3.80;1.00;;;23.00;99.90;;;;;;4944148;28;20252;-81
2022/06/05 22:10:41;;;;;;;1.10;1.00;;;22.90;99.90;;;;;;4944406;29;20200;-80
2022/06/05 22:13:08;;;;;;;1.50;1.40;;;22.90;99.90;;;;;;4945547;29;20238;-80
2022/06/05 22:15:37;;;;;;;3.55;1.08;;;22.90;99.90;;;;;;4944876;29;20200;-80
2022/06/05 22:18:06;;;;;;;2.05;1.10;;;23.00;99.90;;;;;;4944247;29;20707;-80
2022/06/05 22:20:34;;;;;;;22.58;2.28;;;22.90;99.90;;;;;;4942723;29;20224;-80
2022/06/05 22:23:04;;;;;;;1.45;1.00;;;23.00;99.90;;;;;;4942683;28;20227;-80
2022/06/05 22:25:32;;;;;;;3.15;0.82;;;22.90;99.90;;;;;;4942725;29;20200;-80
2022/06/05 22:27:59;;;;;;;2.72;1.55;;;23.00;99.90;;;;;;4941401;29;20251;-80
2022/06/05 22:30:26;;;;;;;4.40;1.35;;;22.90;99.90;;;;;;4940666;29;20259;-80
2022/06/05 22:32:53;;;;;;;4.03;0.88;;;23.00;99.90;;;;;;4940896;29;20215;-80
2022/06/05 22:35:22;;;;;;;2.15;1.00;;;22.90;99.90;;;;;;4940710;29;20231;-80
2022/06/05 22:37:49;;;;;;;2.40;0.98;;;22.90;99.90;;;;;;4940572;29;20236;-80
2022/06/05 22:40:17;;;;;;;2.03;0.98;;;22.90;99.90;;;;;;4940389;29;20307;-80
2022/06/05 22:42:46;;;;;;;1.88;0.90;;;22.90;99.90;;;;;;4940484;29;20207;-80
2022/06/05 22:45:15;;;;;;;2.25;1.00;;;22.90;99.90;;;;;;4940379;29;20242;-80
2022/06/05 22:47:42;;;;;;;3.08;1.00;;;23.00;99.90;;;;;;4940564;29;20248;-80
2022/06/05 22:50:13;;;;;;;3.42;1.30;;;22.90;99.90;;;;;;4940413;29;20236;-80
2022/06/05 22:52:43;;;;;;;6.95;1.33;;;22.90;99.90;;;;;;4940819;29;20192;-80
2022/06/05 22:55:11;;;;;;;2.85;1.10;;;23.00;99.90;;;;;;4940759;29;20624;-79
2022/06/05 22:57:38;;;;;;;2.22;1.00;;;22.90;99.90;;;;;;4940149;29;20224;-79
2022/06/05 23:00:10;;;;;;;2.65;0.82;;;22.90;99.90;;;;;;4940281;29;20240;-79
2022/06/05 23:02:37;;;;;;;3.20;1.13;;;23.00;99.90;;;;;;4939605;29;20184;-78
2022/06/05 23:05:04;;;;;;;2.95;0.90;;;22.90;99.90;;;;;;4939894;29;20256;-78
2022/06/05 23:07:32;;;;;;;2.72;1.02;;;22.90;99.90;;;;;;4940960;29;20263;-78
2022/06/05 23:10:00;;;;;;;1.95;1.10;;;22.90;99.90;;;;;;4943115;29;20232;-79
2022/06/05 23:12:27;;;;;;;1.75;1.00;;;22.90;99.90;;;;;;4943155;29;20204;-79
2022/06/05 23:14:54;;;;;;;4.10;1.02;;;22.90;99.90;;;;;;4942264;29;20208;-79
2022/06/05 23:17:21;;;;;;;3.70;0.90;;;22.90;99.90;;;;;;4942177;29;20662;-79
2022/06/05 23:19:48;;;;;;;3.13;1.10;;;22.90;99.90;;;;;;4941565;29;20230;-79
2022/06/05 23:22:18;;;;;;;5.70;0.98;;;22.90;99.90;;;;;;4942161;28;20204;-79
2022/06/05 23:24:52;;;;;;;8.60;1.25;;;22.90;99.90;;;;;;4941688;29;20231;-79
2022/06/05 23:27:21;;;;;;;2.70;1.20;;;22.90;99.90;;;;;;4941449;29;20215;-79
2022/06/05 23:29:48;;;;;;;2.05;0.90;;;22.90;99.90;;;;;;4941288;29;20204;-79
2022/06/05 23:32:15;;;;;;;2.63;1.10;;;22.90;99.90;;;;;;4942005;29;20215;-81
2022/06/05 23:34:45;;;;;;;0.63;0.63;;;22.90;99.90;;;;;;4943679;29;20243;-80
2022/06/05 23:37:15;;;;;;;9.82;1.30;;;22.90;99.90;;;;;;4941896;28;20591;-78
2022/06/05 23:39:42;;;;;;;24.23;2.17;;;22.90;99.90;;;;;;4937987;29;20580;-78
2022/06/05 23:42:09;;;;;;;7.45;1.63;;;22.90;99.90;;;;;;4937720;29;20698;-78
2022/06/05 23:44:38;;;;;;;9.63;1.60;;;22.90;99.90;;;;;;4937954;29;20210;-78
2022/06/05 23:47:06;;;;;;;6.88;1.50;;;22.90;99.90;;;;;;4937471;29;20595;-77
2022/06/05 23:49:33;;;;;;;15.48;1.73;;;22.90;99.90;;;;;;4937815;29;20273;-77
2022/06/05 23:52:00;;;;;;;7.65;1.52;;;22.90;99.90;;;;;;4937785;29;20287;-77
2022/06/05 23:54:27;;;;;;;4.20;1.10;;;22.90;99.90;;;;;;4937466;29;20676;-77
2022/06/05 23:59:40;;;;;;;6.82;1.38;;;22.90;99.90;;;;;;4937766;29;20187;-77
